Time;durP1;ratioP1;P1;durP2;ratioP2;P2;SDS_P1;SDS_P2;PMS_P1;PMS_P2;Temp;Humidity;BMP_temperature;BMP_pressure;BME280_temperature;BME280_humidity;BME280_pressure;Samples;Min_cycle;Max_cycle;Signal;HPM_P1;HPM_P2
2023/07/14 00:00:16;;;;;;;6.45;1.90;;;19.30;77.20;;;;;;4910177;29;20024;-72
2023/07/14 05:01:35;;;;;;;4.75;1.88;;;18.20;87.80;;;;;;5809973;23;20064;-75
2023/07/14 05:04:01;;;;;;;5.85;2.20;;;18.20;87.60;;;;;;4927389;29;20202;-71
2023/07/14 05:06:27;;;;;;;5.03;1.92;;;18.20;87.70;;;;;;4922454;29;20032;-72
2023/07/14 05:08:53;;;;;;;6.63;2.28;;;18.20;87.90;;;;;;4928872;29;20048;-73
2023/07/14 05:11:19;;;;;;;6.53;2.70;;;18.40;87.70;;;;;;4928156;29;20217;-74
2023/07/14 05:13:46;;;;;;;6.50;2.90;;;18.50;87.60;;;;;;4927366;29;20028;-74
2023/07/14 05:16:12;;;;;;;4.97;2.38;;;18.70;87.00;;;;;;4927742;29;20024;-72
2023/07/14 05:18:37;;;;;;;6.55;2.60;;;18.70;86.70;;;;;;4926183;29;20054;-74
2023/07/14 05:21:06;;;;;;;7.07;2.58;;;18.80;86.50;;;;;;4927412;29;20270;-75
2023/07/14 05:23:32;;;;;;;5.70;2.40;;;18.80;86.50;;;;;;4927883;29;20267;-73
2023/07/14 05:25:58;;;;;;;6.30;2.85;;;19.00;86.00;;;;;;4927215;29;20031;-73
2023/07/14 05:28:24;;;;;;;8.80;2.97;;;19.00;86.10;;;;;;4927665;29;20032;-72
2023/07/14 05:30:51;;;;;;;6.78;2.50;;;19.10;85.60;;;;;;4927032;29;20104;-71
2023/07/14 05:33:18;;;;;;;7.95;2.60;;;19.30;85.20;;;;;;4927650;29;20051;-71
2023/07/14 05:35:45;;;;;;;11.50;2.97;;;19.20;85.20;;;;;;4926776;29;20039;-72
2023/07/14 05:38:11;;;;;;;7.47;2.47;;;19.20;84.90;;;;;;4927549;29;20091;-71
2023/07/14 05:40:37;;;;;;;11.60;3.05;;;19.30;84.40;;;;;;4927438;29;20250;-73
2023/07/14 05:43:03;;;;;;;7.85;2.60;;;19.50;84.20;;;;;;4926539;29;20032;-72
2023/07/14 05:45:29;;;;;;;5.35;2.47;;;19.70;83.50;;;;;;4927074;29;20036;-72
2023/07/14 05:47:55;;;;;;;6.15;2.10;;;19.90;83.30;;;;;;4926925;29;20051;-70
2023/07/14 05:50:21;;;;;;;7.70;3.47;;;20.00;83.20;;;;;;4927188;29;20096;-73
2023/07/14 05:52:47;;;;;;;7.65;4.15;;;20.00;83.00;;;;;;4925599;29;20043;-71
2023/07/14 05:55:13;;;;;;;8.60;3.55;;;19.90;83.30;;;;;;4927202;29;20020;-71
2023/07/14 05:57:39;;;;;;;7.10;2.85;;;19.90;83.50;;;;;;4930374;29;20084;-72
2023/07/14 06:00:13;;;;;;;6.60;2.80;;;19.90;83.80;;;;;;4925513;29;20040;-73
2023/07/14 06:02:43;;;;;;;6.55;3.53;;;20.00;83.30;;;;;;4926687;29;20258;-74
2023/07/14 06:05:10;;;;;;;7.20;3.53;;;20.00;83.30;;;;;;4910915;29;20044;-72
2023/07/14 06:07:37;;;;;;;4.95;2.53;;;20.00;83.70;;;;;;4907697;29;20058;-71
2023/07/14 06:10:04;;;;;;;7.15;2.78;;;20.00;83.80;;;;;;4915410;29;20074;-70
2023/07/14 06:12:33;;;;;;;7.50;3.05;;;20.00;84.00;;;;;;4926339;29;20075;-71
2023/07/14 06:14:58;;;;;;;10.10;3.83;;;20.00;84.30;;;;;;4926306;29;20020;-71
2023/07/14 06:17:24;;;;;;;7.93;2.90;;;20.00;84.10;;;;;;4926651;29;20109;-71
2023/07/14 06:19:50;;;;;;;7.95;3.38;;;19.90;84.00;;;;;;4926143;29;20055;-71
2023/07/14 06:22:16;;;;;;;9.38;3.00;;;19.90;84.10;;;;;;4926434;29;20039;-70
2023/07/14 06:24:42;;;;;;;8.90;2.67;;;19.80;84.30;;;;;;4926429;29;20095;-72
2023/07/14 06:27:08;;;;;;;7.95;3.17;;;19.80;84.50;;;;;;4926298;29;20020;-72
2023/07/14 06:29:34;;;;;;;6.65;3.03;;;19.80;84.30;;;;;;4919292;29;20045;-72
2023/07/14 06:32:01;;;;;;;8.70;3.13;;;20.00;84.00;;;;;;4906740;29;20199;-72
2023/07/14 06:34:27;;;;;;;5.97;2.78;;;20.10;83.70;;;;;;4907189;29;20028;-71
2023/07/14 06:36:53;;;;;;;10.77;3.05;;;20.20;83.30;;;;;;4905674;29;20274;-73
2023/07/14 06:39:20;;;;;;;8.98;2.75;;;20.30;82.90;;;;;;4907219;29;20333;-70
2023/07/14 06:41:46;;;;;;;6.47;2.70;;;20.50;82.70;;;;;;4906531;29;20026;-74
2023/07/14 06:44:15;;;;;;;9.35;2.53;;;20.70;81.90;;;;;;4905999;29;20072;-70
2023/07/14 06:46:42;;;;;;;5.70;2.40;;;20.90;81.00;;;;;;4905926;29;20394;-72
2023/07/14 06:49:07;;;;;;;5.05;2.05;;;21.00;79.90;;;;;;4906428;29;20041;-72
2023/07/14 06:51:34;;;;;;;7.05;2.25;;;21.30;79.60;;;;;;4907195;29;20299;-70
2023/07/14 06:53:59;;;;;;;6.95;2.28;;;21.30;79.10;;;;;;4907144;29;20060;-70
2023/07/14 06:56:31;;;;;;;6.55;2.75;;;21.50;78.50;;;;;;4907595;29;20024;-71
2023/07/14 06:58:56;;;;;;;8.77;3.40;;;21.70;78.70;;;;;;4906729;29;20029;-69
2023/07/14 07:01:22;;;;;;;7.03;2.70;;;21.80;77.90;;;;;;4904450;29;20065;-70
2023/07/14 07:03:48;;;;;;;5.90;2.13;;;21.70;78.10;;;;;;4912416;29;20365;-70
2023/07/14 07:06:17;;;;;;;6.25;2.88;;;21.80;77.20;;;;;;4926521;29;20217;-70
2023/07/14 07:08:43;;;;;;;7.68;2.95;;;21.70;77.00;;;;;;4916825;29;20085;-70
2023/07/14 07:11:10;;;;;;;10.07;2.63;;;21.80;77.40;;;;;;4906712;29;20029;-69
2023/07/14 07:13:36;;;;;;;6.35;2.65;;;22.00;77.20;;;;;;4907142;29;20025;-70
2023/07/14 07:16:02;;;;;;;8.05;2.90;;;22.20;75.80;;;;;;4906813;29;20034;-71
2023/07/14 07:18:28;;;;;;;7.30;2.60;;;22.40;75.20;;;;;;4907247;29;20096;-70
2023/07/14 07:20:55;;;;;;;7.88;2.60;;;22.50;74.00;;;;;;4905292;29;20324;-71
2023/07/14 07:23:21;;;;;;;5.68;2.38;;;22.60;74.00;;;;;;4906967;29;20258;-70
2023/07/14 07:25:52;;;;;;;9.88;2.50;;;22.60;73.80;;;;;;4906774;29;20222;-74
2023/07/14 07:28:18;;;;;;;9.48;2.83;;;22.50;73.80;;;;;;4906780;29;20084;-71
2023/07/14 07:30:45;;;;;;;8.00;2.40;;;22.60;73.70;;;;;;4907115;29;20051;-72
2023/07/14 07:33:11;;;;;;;8.10;2.53;;;22.70;72.80;;;;;;4900658;29;20025;-71
2023/07/14 07:35:38;;;;;;;4.95;1.90;;;22.80;72.50;;;;;;4901231;29;20088;-72
2023/07/14 07:38:04;;;;;;;10.10;2.22;;;23.00;72.10;;;;;;4890292;29;20109;-70
2023/07/14 07:40:30;;;;;;;7.63;2.13;;;23.20;71.60;;;;;;4889395;29;20036;-71
2023/07/14 07:42:56;;;;;;;6.20;1.73;;;23.40;70.70;;;;;;4926087;29;20099;-72
2023/07/14 07:45:22;;;;;;;7.80;1.80;;;23.50;70.40;;;;;;4906852;29;20044;-72
2023/07/14 07:47:47;;;;;;;6.03;1.92;;;23.70;70.10;;;;;;4906641;29;20269;-73
2023/07/14 07:50:13;;;;;;;8.20;2.28;;;23.80;68.90;;;;;;4906810;29;20087;-71
2023/07/14 07:52:40;;;;;;;6.03;1.75;;;23.70;68.50;;;;;;4906993;29;20339;-70
2023/07/14 07:55:06;;;;;;;10.57;2.30;;;23.80;68.30;;;;;;4905425;29;20037;-71
2023/07/14 07:57:32;;;;;;;6.65;1.65;;;23.90;66.90;;;;;;4906574;29;20063;-72
2023/07/14 07:59:59;;;;;;;9.82;1.70;;;24.00;65.40;;;;;;4906236;29;20036;-73
2023/07/14 08:02:25;;;;;;;5.45;1.35;;;24.10;65.50;;;;;;4918748;29;20168;-72
2023/07/14 08:04:51;;;;;;;5.35;1.42;;;24.30;64.30;;;;;;4909265;29;20208;-72
2023/07/14 08:07:16;;;;;;;5.15;1.35;;;24.30;63.60;;;;;;4907687;29;20036;-72
2023/07/14 08:09:43;;;;;;;6.85;3.10;;;24.30;64.00;;;;;;4909697;29;20052;-71
2023/07/14 08:12:09;;;;;;;5.55;1.60;;;24.30;63.30;;;;;;4909085;29;20040;-71
2023/07/14 08:14:56;;;;;;;8.43;1.77;;;24.30;64.40;;;;;;4909886;29;20028;-72
2023/07/14 08:17:27;;;;;;;5.63;1.58;;;24.50;64.10;;;;;;4891354;29;20033;-72
2023/07/14 08:19:53;;;;;;;5.63;1.20;;;24.70;63.30;;;;;;4890536;29;20040;-73
2023/07/14 08:22:20;;;;;;;7.00;1.48;;;24.80;62.10;;;;;;4905718;29;20037;-74
2023/07/14 08:24:47;;;;;;;5.70;1.50;;;24.60;61.60;;;;;;4895286;29;20060;-71
2023/07/14 08:27:14;;;;;;;3.55;1.10;;;24.70;61.80;;;;;;4908381;29;20060;-72
2023/07/14 08:29:40;;;;;;;2.95;1.15;;;25.10;62.00;;;;;;4910438;29;20051;-70
2023/07/14 08:32:06;;;;;;;3.50;1.23;;;25.30;61.00;;;;;;4911902;29;20020;-71
2023/07/14 08:34:32;;;;;;;3.03;0.93;;;25.50;60.30;;;;;;4912120;29;20060;-72
2023/07/14 08:36:58;;;;;;;4.35;1.52;;;25.70;60.90;;;;;;4910311;29;20037;-73
2023/07/14 08:39:24;;;;;;;2.13;0.98;;;25.70;59.70;;;;;;4908523;29;20319;-72
2023/07/14 08:41:56;;;;;;;3.95;1.42;;;25.70;58.90;;;;;;4909258;29;20072;-71
2023/07/14 08:44:51;;;;;;;2.53;0.80;;;25.80;59.20;;;;;;4909517;29;20047;-72
2023/07/14 08:47:34;;;;;;;5.38;1.42;;;26.10;58.50;;;;;;4909165;29;20107;-72
2023/07/14 08:50:13;;;;;;;3.60;0.95;;;26.50;58.60;;;;;;4908841;29;20040;-73
2023/07/14 08:52:40;;;;;;;6.30;1.23;;;26.40;58.10;;;;;;4906746;29;20040;-73
2023/07/14 08:55:13;;;;;;;5.20;1.20;;;26.70;58.30;;;;;;4908647;29;20061;-74
2023/07/14 08:57:50;;;;;;;6.80;2.20;;;26.80;57.50;;;;;;4909183;29;20039;-74
2023/07/14 09:00:25;;;;;;;2.53;1.30;;;26.70;57.60;;;;;;4908562;29;20107;-73
2023/07/14 09:03:01;;;;;;;4.85;1.30;;;26.40;58.20;;;;;;4919565;29;20052;-72
2023/07/14 09:05:28;;;;;;;5.40;1.13;;;26.40;58.50;;;;;;4909130;29;20077;-70
2023/07/14 09:07:56;;;;;;;6.63;1.30;;;26.70;59.00;;;;;;4908205;29;20096;-71
2023/07/14 09:10:46;;;;;;;6.38;1.30;;;27.30;58.30;;;;;;4908751;29;20057;-72
2023/07/14 09:13:27;;;;;;;10.20;6.38;;;27.40;58.00;;;;;;4908126;29;20040;-72
2023/07/14 09:15:56;;;;;;;5.53;2.22;;;27.40;57.40;;;;;;4908603;29;20099;-70
2023/07/14 09:18:57;;;;;;;5.28;1.40;;;27.60;57.10;;;;;;4907804;29;20038;-70
2023/07/14 09:21:23;;;;;;;4.00;1.50;;;27.40;57.20;;;;;;4908892;29;20040;-71
2023/07/14 09:24:07;;;;;;;2.55;1.00;;;27.40;57.70;;;;;;4908554;29;20264;-72
2023/07/14 09:26:46;;;;;;;6.00;1.33;;;27.30;57.30;;;;;;4908738;29;20215;-72
2023/07/14 09:29:37;;;;;;;3.50;1.20;;;27.70;57.50;;;;;;4908024;29;20059;-72
2023/07/14 09:32:32;;;;;;;5.10;1.70;;;27.60;57.00;;;;;;4890368;29;20056;-72
2023/07/14 09:35:20;;;;;;;4.53;1.70;;;27.90;57.00;;;;;;4908256;29;20028;-72
2023/07/14 09:37:55;;;;;;;5.63;1.25;;;28.40;56.20;;;;;;4908564;29;20310;-72
2023/07/14 09:40:23;;;;;;;4.30;1.20;;;28.80;55.50;;;;;;4908878;29;20052;-70
2023/07/14 09:42:50;;;;;;;;;;;28.50;55.40;;;;;;4909373;29;20043;-71
2023/07/14 09:45:40;;;;;;;6.20;3.03;;;28.70;55.80;;;;;;4908183;29;19938;-74
2023/07/14 09:48:26;;;;;;;3.42;2.10;;;29.20;55.00;;;;;;4868767;29;20083;-73
2023/07/14 09:51:19;;;;;;;3.10;1.08;;;29.60;54.50;;;;;;4869506;29;20407;-75
2023/07/14 09:54:10;;;;;;;6.57;3.72;;;29.80;54.10;;;;;;4852972;29;20391;-74
2023/07/14 09:56:46;;;;;;;6.63;1.75;;;29.90;54.40;;;;;;4869249;29;20033;-73
2023/07/14 09:59:24;;;;;;;5.45;1.10;;;29.80;53.70;;;;;;4868542;29;20365;-75
2023/07/14 10:01:54;;;;;;;;;;;29.70;54.20;;;;;;4868892;29;20048;-75
2023/07/14 10:04:30;;;;;;;4.00;1.38;;;30.00;54.00;;;;;;4879633;29;19991;-75
2023/07/14 10:07:25;;;;;;;4.13;1.60;;;29.80;53.40;;;;;;4886993;29;20033;-75
2023/07/14 10:09:59;;;;;;;3.90;1.27;;;29.50;54.20;;;;;;4871755;29;20040;-74
2023/07/14 10:12:40;;;;;;;8.00;1.27;;;29.60;52.80;;;;;;4886802;29;20073;-74
2023/07/14 10:15:30;;;;;;;5.15;1.25;;;29.50;53.70;;;;;;4871054;29;20040;-72
2023/07/14 10:18:15;;;;;;;5.20;1.30;;;29.90;52.90;;;;;;4880760;29;20045;-72
2023/07/14 10:20:53;;;;;;;5.55;1.85;;;30.30;53.60;;;;;;4886786;29;20062;-76
2023/07/14 10:23:25;;;;;;;4.22;1.23;;;30.50;52.50;;;;;;4886025;29;20056;-74
2023/07/14 10:25:53;;;;;;;3.67;1.33;;;30.30;52.40;;;;;;4899876;29;20084;-72
2023/07/14 10:28:23;;;;;;;4.63;1.05;;;30.40;52.10;;;;;;4905271;29;20040;-71
2023/07/14 10:30:55;;;;;;;3.55;0.93;;;30.30;51.70;;;;;;4906290;29;20040;-71
2023/07/14 10:33:40;;;;;;;3.60;1.50;;;30.20;51.70;;;;;;4888916;29;20304;-74
2023/07/14 10:36:23;;;;;;;3.08;1.20;;;30.30;51.90;;;;;;4914810;29;20068;-71
2023/07/14 10:39:01;;;;;;;2.42;0.90;;;30.40;51.30;;;;;;4887666;29;20057;-72
2023/07/14 10:41:28;;;;;;;4.35;0.90;;;30.50;50.60;;;;;;4905852;29;20036;-70
2023/07/14 10:43:56;;;;;;;5.05;1.20;;;30.70;50.50;;;;;;4907139;29;20096;-72
2023/07/14 10:46:36;;;;;;;4.55;1.73;;;31.00;51.00;;;;;;4906187;29;20278;-72
2023/07/14 10:49:16;;;;;;;2.70;1.02;;;31.20;51.30;;;;;;4907517;29;20052;-70
2023/07/14 10:51:50;;;;;;;6.70;2.15;;;31.10;49.40;;;;;;4907796;29;20075;-71
2023/07/14 10:54:43;;;;;;;7.07;1.55;;;31.30;50.50;;;;;;4906629;29;20036;-71
2023/07/14 10:57:42;;;;;;;4.72;1.40;;;31.10;49.90;;;;;;4906650;29;20060;-70
2023/07/14 11:00:33;;;;;;;4.00;1.02;;;31.00;50.00;;;;;;4905825;29;20035;-74
2023/07/14 11:03:28;;;;;;;4.95;1.10;;;31.10;49.90;;;;;;4921694;29;20334;-74
2023/07/14 11:06:13;;;;;;;5.05;1.25;;;30.90;49.90;;;;;;4907153;29;20077;-73
2023/07/14 11:08:42;;;;;;;5.68;1.20;;;30.80;50.80;;;;;;4906611;29;20096;-72
2023/07/14 11:11:39;;;;;;;4.10;0.98;;;31.00;50.60;;;;;;4899639;29;20239;-71
2023/07/14 11:14:24;;;;;;;6.70;1.73;;;31.00;49.60;;;;;;4906335;29;20033;-72
2023/07/14 11:17:17;;;;;;;3.15;1.30;;;31.10;50.30;;;;;;4906593;29;20370;-73
2023/07/14 11:19:58;;;;;;;5.25;1.30;;;31.00;51.10;;;;;;4908669;29;20063;-71
2023/07/14 11:22:50;;;;;;;6.13;1.40;;;31.00;49.80;;;;;;4923776;29;20071;-71
2023/07/14 11:25:22;;;;;;;3.38;1.13;;;31.30;50.00;;;;;;4911804;29;20378;-72
2023/07/14 11:28:23;;;;;;;2.63;0.93;;;31.20;49.60;;;;;;4891142;29;20036;-70
2023/07/14 11:30:54;;;;;;;2.58;0.90;;;31.00;49.60;;;;;;4887078;29;20071;-72
2023/07/14 11:33:35;;;;;;;4.18;1.10;;;30.90;49.70;;;;;;4905999;29;20028;-71
2023/07/14 11:36:13;;;;;;;2.92;1.02;;;30.80;50.00;;;;;;4905721;29;20093;-74
2023/07/14 11:38:49;;;;;;;6.72;1.10;;;31.60;49.70;;;;;;4906596;29;20100;-71
2023/07/14 11:41:18;;;;;;;3.58;0.82;;;32.20;49.10;;;;;;4905877;29;20040;-73
2023/07/14 11:43:46;;;;;;;1.85;0.65;;;31.80;48.90;;;;;;4909500;29;20200;-71
2023/07/14 11:46:19;;;;;;;3.80;0.90;;;32.10;49.70;;;;;;4909664;29;20399;-71
2023/07/14 11:48:54;;;;;;;6.70;2.20;;;32.50;48.70;;;;;;4909325;29;20061;-72
2023/07/14 11:51:22;;;;;;;4.82;1.08;;;32.40;49.60;;;;;;4909720;29;20302;-72
2023/07/14 11:54:03;;;;;;;;;;;32.20;48.40;;;;;;4910462;29;20037;-72
2023/07/14 11:56:31;;;;;;;7.22;1.25;;;32.20;49.20;;;;;;4908934;29;20016;-71
2023/07/14 11:59:13;;;;;;;3.47;1.13;;;31.70;48.70;;;;;;4909040;29;20298;-72
2023/07/14 12:01:50;;;;;;;5.63;1.30;;;31.80;49.70;;;;;;4915721;29;20087;-71
2023/07/14 12:04:26;;;;;;;4.20;1.02;;;32.40;49.40;;;;;;4917097;29;20417;-70
2023/07/14 12:07:16;;;;;;;7.53;2.10;;;33.70;48.10;;;;;;4909723;29;20037;-73
2023/07/14 12:09:59;;;;;;;5.90;1.00;;;34.30;46.70;;;;;;4890871;29;20299;-72
2023/07/14 12:12:24;;;;;;;5.88;1.50;;;34.50;46.70;;;;;;4891132;29;20037;-73
2023/07/14 12:14:51;;;;;;;3.47;0.95;;;36.30;46.40;;;;;;4891011;29;20112;-72
2023/07/14 12:17:36;;;;;;;4.43;1.35;;;37.00;44.20;;;;;;4891063;29;20045;-71
2023/07/14 12:20:16;;;;;;;4.80;1.70;;;37.10;44.70;;;;;;4890954;29;20044;-72
2023/07/14 12:23:06;;;;;;;5.78;1.30;;;36.70;44.90;;;;;;4920849;29;20218;-71
2023/07/14 12:25:39;;;;;;;6.43;1.02;;;36.40;44.60;;;;;;4909324;29;20345;-71
2023/07/14 12:28:23;;;;;;;6.55;0.95;;;35.70;44.50;;;;;;4890385;29;20402;-71
2023/07/14 12:30:51;;;;;;;5.43;1.55;;;36.60;44.70;;;;;;4890707;29;20032;-72
2023/07/14 12:33:19;;;;;;;3.38;0.98;;;38.00;43.60;;;;;;4890042;29;20053;-73
2023/07/14 12:35:45;;;;;;;3.33;1.13;;;38.80;43.00;;;;;;4903263;29;20092;-72
2023/07/14 12:38:18;;;;;;;1.42;0.70;;;38.50;42.50;;;;;;4903026;29;20037;-71
2023/07/14 12:40:46;;;;;;;2.95;0.82;;;37.40;43.40;;;;;;4909815;29;20091;-70
2023/07/14 12:43:27;;;;;;;2.80;1.10;;;37.40;43.20;;;;;;4909309;29;20215;-72
2023/07/14 12:45:57;;;;;;;3.55;1.10;;;37.40;43.70;;;;;;4909923;29;20025;-72
2023/07/14 12:48:32;;;;;;;3.67;0.82;;;37.20;43.70;;;;;;4909430;29;20107;-72
2023/07/14 12:51:10;;;;;;;3.90;0.90;;;37.50;44.20;;;;;;4908882;29;20039;-71
2023/07/14 12:53:36;;;;;;;7.72;1.52;;;39.10;43.20;;;;;;4909296;29;20041;-71
2023/07/14 12:56:10;;;;;;;2.25;1.00;;;40.70;42.50;;;;;;4908682;29;20296;-71
2023/07/14 12:58:35;;;;;;;3.13;0.85;;;40.80;41.50;;;;;;4890870;29;20036;-71
2023/07/14 13:01:03;;;;;;;2.60;0.80;;;41.10;41.80;;;;;;4898775;29;20051;-71
2023/07/14 13:03:38;;;;;;;12.80;2.15;;;40.70;40.80;;;;;;4921452;29;20068;-70
2023/07/14 13:06:04;;;;;;;4.53;1.10;;;40.50;41.20;;;;;;4928171;29;20028;-70
2023/07/14 13:08:30;;;;;;;2.70;0.90;;;39.00;41.30;;;;;;4909531;29;20084;-71
2023/07/14 13:10:57;;;;;;;3.88;0.90;;;39.10;42.70;;;;;;4909379;29;20057;-74
2023/07/14 13:13:30;;;;;;;;;;;40.20;41.70;;;;;;4908561;29;20028;-74
2023/07/14 13:16:02;;;;;;;1.75;0.90;;;41.30;40.70;;;;;;4909586;29;19907;-72
2023/07/14 13:18:37;;;;;;;3.38;0.80;;;40.90;40.10;;;;;;4909341;29;20053;-72
2023/07/14 13:21:25;;;;;;;4.38;0.95;;;41.30;40.70;;;;;;4908736;29;20032;-71
2023/07/14 13:24:06;;;;;;;5.80;1.15;;;42.00;39.80;;;;;;4909096;29;20064;-71
2023/07/14 13:26:46;;;;;;;3.05;0.93;;;42.80;40.00;;;;;;4909381;29;20032;-76
2023/07/14 13:29:18;;;;;;;3.10;0.80;;;43.80;39.00;;;;;;4908308;29;20234;-72
2023/07/14 13:31:46;;;;;;;3.35;0.90;;;44.30;38.60;;;;;;4908846;29;20032;-73
2023/07/14 13:34:22;;;;;;;;;;;44.20;38.50;;;;;;4908891;29;20040;-72
2023/07/14 13:36:51;;;;;;;5.82;1.13;;;43.90;38.60;;;;;;4909157;29;20189;-73
2023/07/14 13:39:32;;;;;;;2.88;0.80;;;44.50;38.30;;;;;;4908379;29;20044;-71
2023/07/14 13:42:00;;;;;;;3.13;0.90;;;43.70;38.00;;;;;;4908147;29;20028;-71
2023/07/14 13:44:37;;;;;;;1.65;0.60;;;43.70;38.80;;;;;;4908435;29;20040;-72
2023/07/14 13:47:23;;;;;;;5.43;1.25;;;44.60;37.90;;;;;;4908608;29;20064;-74
2023/07/14 13:49:51;;;;;;;1.60;0.80;;;45.00;38.10;;;;;;4923321;29;20378;-73
2023/07/14 13:52:23;;;;;;;2.80;0.93;;;45.80;37.80;;;;;;4907920;29;20044;-72
2023/07/14 13:55:18;;;;;;;2.00;0.75;;;45.20;37.50;;;;;;4908619;29;20024;-73
2023/07/14 13:57:45;;;;;;;2.17;0.90;;;44.80;37.80;;;;;;4907586;29;20075;-73
2023/07/14 14:00:28;;;;;;;;;;;43.70;38.30;;;;;;4908421;29;20099;-73
2023/07/14 14:02:58;;;;;;;3.22;1.25;;;43.70;38.30;;;;;;4923759;29;19915;-73
2023/07/14 14:05:30;;;;;;;3.70;1.00;;;43.50;38.10;;;;;;4908087;29;20048;-74
2023/07/14 14:07:59;;;;;;;2.78;1.00;;;45.00;38.20;;;;;;4908148;29;20373;-73
2023/07/14 14:10:27;;;;;;;3.03;0.90;;;45.50;37.50;;;;;;4908567;29;20047;-72
2023/07/14 14:12:55;;;;;;;3.45;0.98;;;46.80;37.00;;;;;;4907849;29;20055;-72
2023/07/14 14:15:25;;;;;;;3.70;0.93;;;47.00;36.80;;;;;;4907983;29;20029;-72
2023/07/14 14:18:13;;;;;;;3.28;1.20;;;47.50;36.40;;;;;;4908283;29;20032;-72
2023/07/14 14:20:39;;;;;;;2.03;0.70;;;47.20;36.40;;;;;;4908098;29;20048;-73
2023/07/14 14:23:05;;;;;;;2.03;0.75;;;47.20;36.00;;;;;;4906632;29;20257;-73
2023/07/14 14:25:33;;;;;;;2.53;1.10;;;45.50;36.20;;;;;;4907501;29;20040;-71
2023/07/14 14:27:59;;;;;;;3.10;0.77;;;45.10;36.50;;;;;;4907202;29;20329;-72
2023/07/14 14:30:41;;;;;;;3.92;0.82;;;44.80;37.20;;;;;;4908354;29;20048;-72
2023/07/14 14:33:28;;;;;;;3.30;0.85;;;46.50;36.20;;;;;;4907412;29;20028;-72
2023/07/14 14:35:57;;;;;;;4.18;1.00;;;48.40;35.80;;;;;;4922573;29;20061;-73
2023/07/14 14:38:29;;;;;;;3.15;0.90;;;49.10;35.30;;;;;;4907519;29;20032;-73
2023/07/14 14:40:56;;;;;;;2.20;0.90;;;48.00;35.30;;;;;;4907737;29;20047;-72
2023/07/14 14:43:28;;;;;;;2.58;1.00;;;46.70;36.20;;;;;;4907610;29;20028;-72
2023/07/14 14:45:58;;;;;;;3.72;0.90;;;46.20;36.40;;;;;;4907532;29;20348;-73
2023/07/14 14:48:29;;;;;;;2.75;0.93;;;45.00;37.00;;;;;;4908315;29;20040;-72
2023/07/14 14:50:57;;;;;;;4.82;1.30;;;44.40;37.00;;;;;;4908422;29;20145;-71
2023/07/14 14:53:25;;;;;;;4.53;1.02;;;45.70;36.80;;;;;;4908120;29;20028;-73
2023/07/14 14:56:01;;;;;;;5.93;1.30;;;46.60;36.60;;;;;;4909092;29;20156;-72
2023/07/14 14:58:30;;;;;;;2.53;0.80;;;47.80;35.70;;;;;;4907881;29;20036;-73
2023/07/14 15:01:00;;;;;;;2.28;0.90;;;48.10;35.00;;;;;;4907562;29;20029;-71
2023/07/14 15:03:26;;;;;;;2.90;0.90;;;48.00;35.40;;;;;;4907675;29;20188;-71
2023/07/14 15:05:52;;;;;;;2.45;0.95;;;47.50;35.30;;;;;;4907842;29;20040;-72
2023/07/14 15:08:19;;;;;;;1.33;0.68;;;47.00;35.40;;;;;;4907057;29;20036;-72
2023/07/14 15:10:49;;;;;;;;;;;46.00;35.60;;;;;;4908170;29;20040;-74
2023/07/14 15:13:18;;;;;;;2.88;0.90;;;47.50;35.80;;;;;;4907321;29;19907;-72
2023/07/14 15:15:46;;;;;;;3.53;0.90;;;47.60;35.00;;;;;;4907654;29;20029;-71
2023/07/14 15:18:13;;;;;;;2.95;1.00;;;46.50;35.70;;;;;;4909902;29;20230;-73
2023/07/14 15:20:41;;;;;;;4.07;0.95;;;47.30;35.70;;;;;;4911302;29;20035;-73
2023/07/14 15:23:12;;;;;;;3.45;1.02;;;47.10;35.30;;;;;;4910712;29;20321;-71
2023/07/14 15:25:41;;;;;;;1.70;0.80;;;48.30;35.40;;;;;;4911045;29;20092;-71
2023/07/14 15:28:18;;;;;;;3.03;0.90;;;48.40;34.60;;;;;;4910506;29;20020;-72
2023/07/14 15:30:44;;;;;;;2.65;0.80;;;48.50;34.30;;;;;;4911440;29;20032;-72
2023/07/14 15:33:15;;;;;;;2.22;0.75;;;48.00;35.20;;;;;;4910874;29;20052;-73
2023/07/14 15:35:42;;;;;;;2.35;0.85;;;49.10;34.60;;;;;;4910969;29;20091;-73
2023/07/14 15:38:11;;;;;;;2.35;0.80;;;47.70;34.40;;;;;;4910241;29;20072;-71
2023/07/14 15:40:46;;;;;;;1.70;0.70;;;46.10;35.20;;;;;;4910930;29;20068;-72
2023/07/14 15:43:31;;;;;;;2.50;0.88;;;47.10;35.50;;;;;;4910692;29;20040;-72
2023/07/14 15:46:01;;;;;;;3.40;0.98;;;47.00;35.00;;;;;;4910493;29;20140;-70
2023/07/14 15:48:33;;;;;;;2.03;0.88;;;46.70;35.20;;;;;;4911329;29;20049;-71
2023/07/14 15:51:03;;;;;;;2.03;0.80;;;44.90;35.90;;;;;;4910371;29;20035;-71
2023/07/14 15:53:36;;;;;;;2.35;0.88;;;45.70;35.50;;;;;;4910938;29;20060;-72
2023/07/14 15:56:03;;;;;;;2.22;0.98;;;45.60;36.10;;;;;;4910683;29;20096;-71
2023/07/14 15:58:29;;;;;;;2.97;0.88;;;47.30;35.90;;;;;;4910628;29;20068;-71
2023/07/14 16:00:56;;;;;;;2.20;0.80;;;47.00;35.50;;;;;;4909522;29;20077;-70
2023/07/14 16:03:23;;;;;;;1.95;0.70;;;46.80;36.40;;;;;;4909633;29;20053;-70
2023/07/14 16:05:49;;;;;;;2.47;0.82;;;44.20;36.20;;;;;;4910741;29;20036;-73
2023/07/14 16:08:35;;;;;;;1.63;0.65;;;43.20;37.60;;;;;;4910404;29;20344;-72
2023/07/14 16:11:03;;;;;;;2.20;0.87;;;43.30;37.30;;;;;;4909893;29;20036;-72
2023/07/14 16:13:29;;;;;;;2.00;0.98;;;43.80;37.30;;;;;;4910325;29;20344;-72
2023/07/14 16:15:55;;;;;;;2.88;0.98;;;44.60;36.80;;;;;;4910558;29;20020;-72
2023/07/14 16:18:21;;;;;;;2.90;0.80;;;44.50;36.80;;;;;;4924442;29;20033;-80
2023/07/14 16:20:47;;;;;;;1.85;0.85;;;44.80;36.70;;;;;;4910445;29;20024;-72
2023/07/14 16:23:23;;;;;;;3.28;0.95;;;45.00;36.80;;;;;;4909830;29;20039;-74
2023/07/14 16:25:49;;;;;;;2.30;1.00;;;43.90;37.00;;;;;;4910321;29;20417;-71
2023/07/14 16:28:15;;;;;;;1.95;0.90;;;44.60;37.10;;;;;;4909000;29;20421;-75
2023/07/14 16:30:42;;;;;;;1.92;0.82;;;44.80;36.90;;;;;;4910157;29;20025;-72
2023/07/14 16:33:08;;;;;;;;;;;46.00;36.30;;;;;;4923601;29;20035;-71
2023/07/14 16:35:35;;;;;;;3.25;0.88;;;45.80;36.00;;;;;;4912130;29;19982;-72
2023/07/14 16:38:01;;;;;;;3.38;1.08;;;45.60;35.80;;;;;;4928536;29;20058;-71
2023/07/14 16:40:30;;;;;;;1.80;0.85;;;46.20;36.60;;;;;;4921456;29;20210;-72
2023/07/14 16:43:00;;;;;;;3.15;0.90;;;46.40;36.10;;;;;;4907380;29;20076;-72
2023/07/14 16:45:31;;;;;;;3.17;1.10;;;45.30;36.00;;;;;;4917029;29;20043;-71
2023/07/14 16:47:58;;;;;;;2.20;0.90;;;45.20;36.50;;;;;;4918025;29;20044;-72
2023/07/14 16:50:24;;;;;;;2.63;0.80;;;44.80;36.70;;;;;;4911261;29;20027;-71
2023/07/14 16:52:50;;;;;;;1.97;1.27;;;43.60;37.40;;;;;;4922574;29;20281;-71
2023/07/14 16:55:26;;;;;;;2.55;1.20;;;42.50;37.60;;;;;;4928541;29;20035;-70
2023/07/14 16:57:54;;;;;;;2.00;0.90;;;41.10;38.80;;;;;;4928135;29;20082;-72
2023/07/14 17:00:28;;;;;;;2.70;1.00;;;39.80;39.80;;;;;;4923246;29;20590;-71
2023/07/14 17:03:03;;;;;;;3.08;1.00;;;38.50;40.90;;;;;;4925394;29;20055;-72
2023/07/14 17:05:34;;;;;;;2.88;1.10;;;37.30;41.80;;;;;;4926758;29;20040;-74
2023/07/14 17:08:01;;;;;;;2.40;1.17;;;36.60;42.90;;;;;;4908095;29;20028;-70
2023/07/14 17:10:29;;;;;;;2.45;1.38;;;35.80;43.50;;;;;;4917937;29;20056;-71
2023/07/14 17:12:57;;;;;;;3.78;1.30;;;35.60;43.90;;;;;;4928360;29;20032;-69
2023/07/14 17:15:23;;;;;;;2.85;1.48;;;36.40;43.60;;;;;;4927895;29;20039;-70
2023/07/14 17:17:50;;;;;;;3.65;1.17;;;37.40;42.60;;;;;;4928213;29;20039;-72
2023/07/14 17:20:18;;;;;;;3.47;1.58;;;38.20;41.90;;;;;;4927112;29;20059;-72
2023/07/14 17:22:48;;;;;;;3.20;1.25;;;39.30;41.00;;;;;;4928011;29;20040;-70
2023/07/14 17:25:24;;;;;;;3.17;1.40;;;40.30;40.50;;;;;;4927653;29;20019;-70
2023/07/14 17:27:53;;;;;;;2.58;1.17;;;41.80;39.40;;;;;;4928209;29;20028;-73
2023/07/14 17:30:25;;;;;;;3.13;1.40;;;42.10;38.90;;;;;;4927360;29;20031;-71
2023/07/14 17:32:58;;;;;;;3.33;1.15;;;41.80;38.90;;;;;;4927367;29;20020;-72
2023/07/14 17:35:35;;;;;;;3.25;1.25;;;41.60;39.10;;;;;;4926119;29;20191;-76
2023/07/14 17:38:01;;;;;;;4.00;1.10;;;40.60;39.50;;;;;;4927917;29;20074;-74
2023/07/14 17:40:31;;;;;;;3.05;1.35;;;40.70;39.70;;;;;;4918838;29;20060;-72
2023/07/14 17:43:03;;;;;;;4.80;1.65;;;40.70;39.50;;;;;;4908863;29;20104;-71
2023/07/14 17:45:28;;;;;;;3.05;1.67;;;40.60;39.70;;;;;;4908682;29;20043;-71
2023/07/14 17:47:54;;;;;;;3.78;1.73;;;40.60;39.80;;;;;;4908610;29;20032;-73
2023/07/14 17:50:22;;;;;;;4.75;1.30;;;40.60;39.90;;;;;;4907928;29;20251;-72
2023/07/14 17:52:55;;;;;;;2.75;1.05;;;40.90;39.70;;;;;;4923274;29;20020;-71
2023/07/14 17:55:23;;;;;;;4.05;1.02;;;40.90;39.80;;;;;;4927144;29;20105;-73
2023/07/14 17:57:53;;;;;;;3.80;1.85;;;40.70;39.80;;;;;;4926333;29;20027;-74
2023/07/14 18:00:27;;;;;;;3.53;1.80;;;40.90;40.10;;;;;;4926952;29;20043;-71
2023/07/14 18:02:58;;;;;;;3.67;1.73;;;40.80;40.00;;;;;;4911235;29;20060;-72
2023/07/14 18:05:26;;;;;;;3.17;1.42;;;41.00;39.80;;;;;;4907791;29;20075;-72
2023/07/14 18:07:57;;;;;;;5.03;1.33;;;40.90;39.70;;;;;;4908245;29;20024;-72
2023/07/14 18:10:27;;;;;;;3.00;1.20;;;40.60;40.00;;;;;;4907845;29;20029;-74